createdAt,value
2022-09-26T00:00:07.825Z,12.80
2022-09-26T00:02:34.350Z,12.80
2022-09-26T00:05:00.947Z,12.80
2022-09-26T00:07:27.508Z,12.80
2022-09-26T00:09:55.546Z,12.80
2022-09-26T00:12:22.062Z,12.80
2022-09-26T00:14:48.644Z,12.70
2022-09-26T00:17:15.205Z,12.70
2022-09-26T00:19:41.724Z,12.70
2022-09-26T00:22:08.216Z,12.70
2022-09-26T00:24:34.860Z,12.70
2022-09-26T00:27:01.395Z,12.70
2022-09-26T00:29:27.906Z,12.70
2022-09-26T00:31:54.447Z,12.70
2022-09-26T00:34:21.015Z,12.70
2022-09-26T00:36:47.634Z,12.60
2022-09-26T00:39:15.624Z,12.60
2022-09-26T00:41:42.847Z,12.50
2022-09-26T00:44:28.011Z,12.50
2022-09-26T00:46:54.533Z,12.50
2022-09-26T00:49:33.841Z,12.50
2022-09-26T00:52:11.348Z,12.40
2022-09-26T00:54:39.188Z,12.40
2022-09-26T00:57:09.468Z,12.40
2022-09-26T00:59:38.922Z,12.30
2022-09-26T01:02:05.670Z,12.30
2022-09-26T01:04:34.169Z,12.30
2022-09-26T01:07:02.213Z,12.30
2022-09-26T01:09:29.141Z,12.20
2022-09-26T01:11:56.692Z,12.20
2022-09-26T01:14:24.528Z,12.30
2022-09-26T01:16:51.344Z,12.30
2022-09-26T01:19:28.295Z,12.30
2022-09-26T01:22:24.649Z,12.20
2022-09-26T01:25:00.438Z,12.30
2022-09-26T01:27:45.828Z,12.20
2022-09-26T01:30:18.701Z,12.20
2022-09-26T01:32:57.744Z,12.20
2022-09-26T01:35:30.093Z,12.20
2022-09-26T01:38:15.448Z,12.30
2022-09-26T01:41:04.025Z,12.20
2022-09-26T01:43:52.627Z,12.20
2022-09-26T01:46:30.897Z,12.20
2022-09-26T01:49:09.074Z,12.20
2022-09-26T01:51:38.512Z,12.20
2022-09-26T01:54:18.113Z,12.20
2022-09-26T01:56:46.554Z,12.20
2022-09-26T01:59:45.392Z,12.20
2022-09-26T02:02:19.239Z,12.30
2022-09-26T02:04:48.874Z,12.20
2022-09-26T02:07:17.984Z,12.20
2022-09-26T02:09:49.965Z,12.20
2022-09-26T02:12:28.591Z,12.20
2022-09-26T02:14:56.418Z,12.20
2022-09-26T02:17:26.602Z,12.20
2022-09-26T02:19:56.775Z,12.30
2022-09-26T02:22:24.247Z,12.20
2022-09-26T02:24:50.731Z,12.20
2022-09-26T02:27:17.248Z,12.20
2022-09-26T02:29:43.970Z,12.20
2022-09-26T02:32:15.462Z,12.20
2022-09-26T02:34:42.897Z,12.30
2022-09-26T02:37:10.026Z,12.20
2022-09-26T02:39:36.594Z,12.30
2022-09-26T02:42:23.840Z,12.20
2022-09-26T02:44:58.674Z,12.30
2022-09-26T02:47:25.142Z,12.20
2022-09-26T02:50:01.860Z,12.20
2022-09-26T02:52:48.629Z,12.30
2022-09-26T02:55:15.518Z,12.10
2022-09-26T02:57:53.943Z,12.20
2022-09-26T03:00:25.451Z,12.20
2022-09-26T03:02:58.111Z,12.30
2022-09-26T03:05:26.221Z,12.20
2022-09-26T03:07:56.478Z,12.20
2022-09-26T03:10:25.306Z,12.20
2022-09-26T03:12:52.293Z,12.20
2022-09-26T03:15:19.555Z,12.20
2022-09-26T03:17:49.722Z,12.20
2022-09-26T03:20:18.335Z,12.20
2022-09-26T03:22:45.506Z,12.20
2022-09-26T03:25:14.779Z,12.20
2022-09-26T03:27:43.902Z,12.20
2022-09-26T03:30:11.712Z,12.20
2022-09-26T03:32:38.236Z,12.10
2022-09-26T03:35:04.985Z,12.10
2022-09-26T03:37:33.991Z,12.20
2022-09-26T03:40:04.201Z,12.20
2022-09-26T03:42:33.374Z,12.20
2022-09-26T03:45:00.500Z,12.10
2022-09-26T03:47:27.310Z,12.20
2022-09-26T03:49:54.179Z,12.10
2022-09-26T03:52:21.081Z,12.10
2022-09-26T03:54:47.996Z,12.10
2022-09-26T03:57:15.804Z,12.10
2022-09-26T03:59:42.313Z,12.10
2022-09-26T04:02:09.182Z,12.10
2022-09-26T04:04:36.113Z,12.10
2022-09-26T04:07:02.637Z,12.10
2022-09-26T04:09:30.505Z,12.00
2022-09-26T04:11:57.505Z,12.00
2022-09-26T04:14:24.079Z,12.10
2022-09-26T04:16:50.743Z,12.10
2022-09-26T04:19:17.439Z,12.00
2022-09-26T04:21:43.983Z,12.00
2022-09-26T04:24:14.707Z,12.00
2022-09-26T04:26:41.875Z,12.00
2022-09-26T04:29:09.117Z,12.00
2022-09-26T04:31:36.763Z,12.00
2022-09-26T04:34:04.964Z,12.00
2022-09-26T04:36:31.864Z,11.90
2022-09-26T04:38:59.491Z,11.90
2022-09-26T04:41:27.556Z,12.00
2022-09-26T04:43:54.504Z,12.00
2022-09-26T04:46:25.709Z,11.90
2022-09-26T04:48:57.005Z,11.90
2022-09-26T04:51:24.559Z,11.80
2022-09-26T04:53:51.685Z,11.80
2022-09-26T04:56:19.038Z,11.80
2022-09-26T04:58:45.727Z,11.80
2022-09-26T05:01:13.431Z,11.80
2022-09-26T05:03:41.819Z,11.80
2022-09-26T05:06:09.267Z,11.70
2022-09-26T05:08:36.394Z,11.70
2022-09-26T05:11:03.290Z,11.70
2022-09-26T05:13:29.901Z,11.70
2022-09-26T05:15:58.758Z,11.70
2022-09-26T05:18:26.189Z,11.70
2022-09-26T05:20:53.431Z,11.70
2022-09-26T05:23:44.839Z,11.70
2022-09-26T05:26:20.790Z,11.70
2022-09-26T05:29:06.937Z,11.70
2022-09-26T05:31:36.400Z,11.70
2022-09-26T05:34:07.484Z,11.70
2022-09-26T05:36:34.150Z,11.70
2022-09-26T05:39:00.701Z,11.70
2022-09-26T05:41:33.751Z,11.70
2022-09-26T05:44:00.360Z,11.70
2022-09-26T05:46:28.170Z,11.70
2022-09-26T05:48:55.363Z,11.90
2022-09-26T05:51:22.221Z,12.00
2022-09-26T05:53:49.420Z,12.20
2022-09-26T05:56:19.115Z,12.20
2022-09-26T05:58:46.071Z,12.20
2022-09-26T06:01:16.628Z,12.20
2022-09-26T06:03:44.161Z,12.30
2022-09-26T06:06:14.769Z,12.40
2022-09-26T06:08:41.773Z,12.50
2022-09-26T06:11:09.638Z,12.70
2022-09-26T06:13:36.766Z,13.00
2022-09-26T06:16:07.846Z,13.40
2022-09-26T06:18:34.913Z,13.70
2022-09-26T06:21:05.618Z,14.20
2022-09-26T06:23:34.196Z,14.50
2022-09-26T06:26:01.058Z,14.60
2022-09-26T06:28:27.983Z,14.80
2022-09-26T06:30:54.895Z,14.90
2022-09-26T06:33:21.706Z,14.90
2022-09-26T06:35:48.285Z,15.10
2022-09-26T06:38:14.783Z,15.60
2022-09-26T06:40:41.445Z,16.00
2022-09-26T06:43:08.018Z,16.50
2022-09-26T06:45:34.648Z,16.90
2022-09-26T06:48:02.318Z,17.20
2022-09-26T06:50:28.864Z,17.50
2022-09-26T06:52:55.377Z,17.70
2022-09-26T06:55:22.411Z,17.70
2022-09-26T06:57:48.976Z,17.80
2022-09-26T07:00:15.881Z,17.80
2022-09-26T07:02:49.316Z,17.90
2022-09-26T07:05:15.867Z,18.10
2022-09-26T07:07:43.001Z,18.20
2022-09-26T07:10:10.862Z,18.40
2022-09-26T07:12:40.196Z,18.90
2022-09-26T07:15:07.678Z,19.10
2022-09-26T07:17:34.560Z,19.90
2022-09-26T07:20:01.151Z,20.40
2022-09-26T07:22:27.638Z,21.30
2022-09-26T07:24:54.159Z,21.60
2022-09-26T07:27:20.680Z,22.10
2022-09-26T07:29:47.565Z,22.60
2022-09-26T07:32:14.141Z,22.80
2022-09-26T07:34:41.721Z,23.10
2022-09-26T07:37:08.402Z,23.50
2022-09-26T07:39:34.938Z,23.70
2022-09-26T07:42:04.290Z,24.00
2022-09-26T07:45:16.450Z,24.30
2022-09-26T07:47:36.226Z,24.00
2022-09-26T07:50:12.778Z,24.50
2022-09-26T07:52:40.018Z,24.90
2022-09-26T07:55:07.510Z,24.80
2022-09-26T07:57:35.278Z,24.80
2022-09-26T08:00:02.697Z,25.00
2022-09-26T08:02:31.995Z,25.10
2022-09-26T08:05:01.073Z,25.40
2022-09-26T08:07:27.874Z,25.10
2022-09-26T08:09:54.369Z,25.10
2022-09-26T08:12:20.944Z,25.20
2022-09-26T08:14:51.245Z,25.20
2022-09-26T08:17:17.761Z,25.30
2022-09-26T08:19:44.631Z,25.50
2022-09-26T08:22:11.909Z,25.70
2022-09-26T08:24:43.602Z,25.50
2022-09-26T08:27:10.146Z,25.90
2022-09-26T08:29:36.778Z,26.00
2022-09-26T08:32:04.189Z,26.30
2022-09-26T08:34:32.026Z,26.10
2022-09-26T08:36:58.603Z,27.10
2022-09-26T08:39:26.451Z,27.30
2022-09-26T08:42:03.686Z,27.70
2022-09-26T08:44:45.523Z,28.60
2022-09-26T08:47:33.648Z,29.50
2022-09-26T08:50:08.041Z,30.90
2022-09-26T08:52:40.012Z,31.50
2022-09-26T08:55:15.906Z,32.40
2022-09-26T08:57:45.660Z,32.60
2022-09-26T09:00:19.188Z,32.50
2022-09-26T09:02:51.686Z,32.90
2022-09-26T09:05:23.192Z,32.60
2022-09-26T09:07:51.908Z,32.30
2022-09-26T09:10:19.845Z,32.10
2022-09-26T09:12:52.548Z,31.90
2022-09-26T09:15:37.882Z,31.30
2022-09-26T09:18:14.302Z,29.60
2022-09-26T09:20:56.146Z,29.20
2022-09-26T09:23:22.695Z,29.30
2022-09-26T09:27:52.470Z,29.40
2022-09-26T09:28:57.438Z,29.40
2022-09-26T09:31:26.256Z,29.20
2022-09-26T09:33:57.331Z,29.30
2022-09-26T09:36:26.371Z,28.90
2022-09-26T09:38:53.305Z,28.50
2022-09-26T09:41:22.752Z,28.00
2022-09-26T09:43:51.797Z,27.40
2022-09-26T09:46:29.041Z,26.80
2022-09-26T09:49:07.763Z,26.20
2022-09-26T09:51:53.231Z,25.80
2022-09-26T09:54:32.607Z,25.50
2022-09-26T09:57:17.912Z,25.60
2022-09-26T09:59:44.858Z,25.00
2022-09-26T10:02:17.679Z,25.50
2022-09-26T10:04:49.001Z,25.20
2022-09-26T10:07:16.187Z,24.90
2022-09-26T10:09:46.134Z,24.30
2022-09-26T10:12:17.079Z,23.80
2022-09-26T10:14:55.732Z,23.70
2022-09-26T10:17:23.063Z,23.90
2022-09-26T10:19:50.049Z,24.00
2022-09-26T10:22:26.127Z,24.00
2022-09-26T10:24:59.045Z,24.30
2022-09-26T10:27:34.853Z,24.70
2022-09-26T10:30:02.952Z,25.70
2022-09-26T10:32:30.078Z,26.20
2022-09-26T10:35:24.186Z,26.20
2022-09-26T10:38:01.175Z,26.20
2022-09-26T10:40:48.235Z,26.30
2022-09-26T10:43:22.701Z,25.60
2022-09-26T10:45:55.273Z,25.20
2022-09-26T10:48:24.383Z,24.60
2022-09-26T10:50:52.140Z,24.10
2022-09-26T10:53:22.910Z,23.80
2022-09-26T10:55:57.340Z,23.90
2022-09-26T10:58:27.574Z,24.00
2022-09-26T11:00:54.702Z,24.60
2022-09-26T11:03:32.258Z,25.00
2022-09-26T11:05:59.739Z,26.00
2022-09-26T11:08:26.300Z,26.20
2022-09-26T11:10:53.463Z,26.20
2022-09-26T11:13:20.944Z,26.00
2022-09-26T11:16:01.477Z,26.10
2022-09-26T11:18:34.632Z,26.80
2022-09-26T11:21:14.443Z,26.70
2022-09-26T11:23:58.374Z,25.70
2022-09-26T11:26:29.666Z,26.10
2022-09-26T11:29:03.709Z,27.00
2022-09-26T11:31:33.758Z,27.50
2022-09-26T11:34:03.187Z,27.40
2022-09-26T11:36:39.536Z,26.60
2022-09-26T11:39:25.079Z,26.20
2022-09-26T11:41:57.469Z,25.60
2022-09-26T11:44:33.185Z,25.00
2022-09-26T11:47:02.979Z,24.50
2022-09-26T11:49:52.445Z,24.20
2022-09-26T11:52:19.003Z,23.80
2022-09-26T11:54:57.324Z,23.60
2022-09-26T11:57:34.429Z,23.50
2022-09-26T12:00:06.422Z,23.60
2022-09-26T12:02:47.365Z,23.40
2022-09-26T12:05:27.212Z,23.80
2022-09-26T12:08:08.291Z,23.80
2022-09-26T12:10:34.993Z,23.90
2022-09-26T12:13:12.026Z,24.30
2022-09-26T12:15:44.791Z,24.30
2022-09-26T12:18:30.353Z,24.40
2022-09-26T12:20:56.871Z,24.40
2022-09-26T12:23:26.374Z,24.20
2022-09-26T12:26:00.668Z,24.30
2022-09-26T12:28:33.476Z,25.30
2022-09-26T12:31:13.165Z,26.00
2022-09-26T12:33:58.187Z,26.40
2022-09-26T12:36:28.010Z,26.80
2022-09-26T12:39:03.003Z,27.30
2022-09-26T12:41:55.671Z,27.90
2022-09-26T12:44:31.240Z,27.90
2022-09-26T12:47:15.920Z,27.00
2022-09-26T12:49:42.427Z,26.10
2022-09-26T12:52:18.531Z,25.80
2022-09-26T12:54:45.746Z,25.50
2022-09-26T12:57:17.148Z,25.10
2022-09-26T13:00:17.135Z,24.80
2022-09-26T13:03:09.656Z,24.80
2022-09-26T13:05:36.901Z,25.10
2022-09-26T13:08:16.224Z,24.50
2022-09-26T13:10:50.350Z,24.50
2022-09-26T13:13:38.213Z,25.10
2022-09-26T13:16:18.738Z,25.40
2022-09-26T13:18:50.402Z,25.30
2022-09-26T13:21:24.101Z,25.40
2022-09-26T13:23:53.548Z,25.20
2022-09-26T13:26:25.858Z,25.10
2022-09-26T13:29:23.347Z,24.50
2022-09-26T13:31:48.238Z,24.40
2022-09-26T13:34:18.273Z,23.90
2022-09-26T13:36:44.999Z,23.80
2022-09-26T13:39:34.887Z,23.40
2022-09-26T13:42:07.420Z,23.20
2022-09-26T13:44:44.872Z,23.20
2022-09-26T13:47:34.685Z,23.00
2022-09-26T13:50:14.276Z,22.80
2022-09-26T13:52:52.925Z,22.40
2022-09-26T13:55:21.614Z,22.20
2022-09-26T13:58:03.956Z,22.00
2022-09-26T14:00:30.623Z,21.80
2022-09-26T14:03:16.641Z,21.50
2022-09-26T14:05:46.665Z,21.20
2022-09-26T14:08:44.421Z,20.80
2022-09-26T14:11:31.462Z,20.70
2022-09-26T14:14:16.773Z,20.30
2022-09-26T14:16:43.995Z,20.00
2022-09-26T14:19:10.965Z,19.80
2022-09-26T14:21:57.965Z,19.70
2022-09-26T14:24:24.625Z,19.50
2022-09-26T14:26:57.100Z,19.30
2022-09-26T14:29:46.962Z,19.30
2022-09-26T14:32:23.172Z,19.20
2022-09-26T14:35:00.288Z,19.10
2022-09-26T14:37:29.520Z,19.20
2022-09-26T14:39:59.388Z,19.20
2022-09-26T14:42:28.273Z,19.20
2022-09-26T14:44:58.106Z,19.30
2022-09-26T14:47:25.936Z,19.20
2022-09-26T14:49:59.795Z,19.20
2022-09-26T14:52:26.658Z,19.20
2022-09-26T14:54:55.489Z,19.10
2022-09-26T14:57:24.985Z,19.00
2022-09-26T14:59:51.541Z,18.60
2022-09-26T15:02:21.596Z,18.80
2022-09-26T15:04:51.233Z,18.90
2022-09-26T15:07:20.699Z,19.20
2022-09-26T15:10:01.976Z,19.30
2022-09-26T15:12:28.557Z,19.40
2022-09-26T15:15:13.891Z,19.60
2022-09-26T15:17:43.959Z,19.70
2022-09-26T15:20:15.880Z,19.70
2022-09-26T15:22:43.063Z,19.60
2022-09-26T15:25:09.677Z,19.50
2022-09-26T15:27:36.209Z,19.50
2022-09-26T15:30:14.143Z,19.50
2022-09-26T15:32:40.724Z,19.50
2022-09-26T15:35:10.884Z,19.10
2022-09-26T15:37:37.435Z,19.00
2022-09-26T15:40:13.005Z,18.90
2022-09-26T15:42:58.256Z,18.80
2022-09-26T15:45:28.398Z,18.70
2022-09-26T15:47:56.575Z,18.60
2022-09-26T15:50:27.933Z,18.60
2022-09-26T15:52:55.209Z,18.50
2022-09-26T15:55:24.279Z,18.40
2022-09-26T15:57:52.101Z,18.40
2022-09-26T16:00:19.036Z,18.30
2022-09-26T16:02:46.557Z,18.20
2022-09-26T16:05:14.257Z,18.20
2022-09-26T16:07:41.583Z,18.10
2022-09-26T16:10:31.174Z,18.10
2022-09-26T16:12:59.570Z,18.00
2022-09-26T16:15:28.757Z,17.90
2022-09-26T16:17:57.281Z,17.90
2022-09-26T16:20:26.128Z,17.80
2022-09-26T16:22:54.584Z,17.80
2022-09-26T16:25:25.801Z,17.80
2022-09-26T16:27:52.351Z,17.60
2022-09-26T16:30:28.038Z,17.50
2022-09-26T16:32:55.639Z,17.50
2022-09-26T16:35:29.929Z,17.40
2022-09-26T16:37:59.338Z,17.30
2022-09-26T16:40:30.225Z,17.10
2022-09-26T16:43:15.557Z,17.00
2022-09-26T16:45:46.096Z,16.90
2022-09-26T16:48:31.444Z,16.80
2022-09-26T16:51:17.094Z,16.80
2022-09-26T16:53:45.674Z,16.70
2022-09-26T16:56:14.191Z,16.60
2022-09-26T16:58:44.408Z,16.50
2022-09-26T17:01:29.665Z,16.30
2022-09-26T17:03:56.936Z,16.20
2022-09-26T17:06:23.487Z,16.00
2022-09-26T17:08:50.119Z,15.90
2022-09-26T17:11:16.738Z,15.80
2022-09-26T17:13:43.773Z,15.70
2022-09-26T17:16:10.576Z,15.60
2022-09-26T17:18:37.370Z,15.60
2022-09-26T17:21:04.051Z,15.50
2022-09-26T17:23:40.358Z,15.50
2022-09-26T17:26:07.963Z,15.40
2022-09-26T17:28:39.117Z,15.30
2022-09-26T17:31:07.639Z,15.30
2022-09-26T17:33:37.878Z,15.20
2022-09-26T17:36:04.598Z,15.10
2022-09-26T17:38:33.621Z,15.00
2022-09-26T17:41:02.229Z,15.00
2022-09-26T17:43:28.747Z,14.90
2022-09-26T17:45:55.369Z,15.00
2022-09-26T17:48:28.703Z,14.90
2022-09-26T17:50:55.921Z,14.80
2022-09-26T17:53:25.092Z,14.80
2022-09-26T17:55:53.066Z,14.80
2022-09-26T17:58:19.667Z,14.70
2022-09-26T18:00:47.189Z,14.80
2022-09-26T18:03:19.978Z,14.70
2022-09-26T18:05:46.728Z,14.70
2022-09-26T18:08:19.276Z,14.70
2022-09-26T18:10:50.255Z,14.60
2022-09-26T18:13:20.724Z,14.70
2022-09-26T18:15:47.348Z,14.60
2022-09-26T18:18:18.990Z,14.60
2022-09-26T18:20:46.196Z,14.60
2022-09-26T18:23:16.882Z,14.50
2022-09-26T18:25:45.280Z,14.50
2022-09-26T18:28:13.008Z,14.40
2022-09-26T18:30:40.666Z,14.30
2022-09-26T18:33:07.290Z,14.30
2022-09-26T18:35:33.774Z,14.20
2022-09-26T18:38:00.314Z,14.20
2022-09-26T18:40:28.419Z,14.20
2022-09-26T18:42:56.849Z,14.20
2022-09-26T18:45:26.000Z,14.20
2022-09-26T18:47:52.484Z,14.20
2022-09-26T18:50:21.709Z,14.20
2022-09-26T18:52:48.348Z,14.20
2022-09-26T18:55:38.211Z,14.20
2022-09-26T18:58:23.374Z,14.20
2022-09-26T19:00:54.212Z,14.10
2022-09-26T19:03:22.149Z,14.10
2022-09-26T19:05:52.425Z,14.10
2022-09-26T19:08:28.108Z,14.00
2022-09-26T19:10:55.003Z,14.00
2022-09-26T19:13:26.707Z,14.00
2022-09-26T19:15:54.098Z,13.90
2022-09-26T19:18:20.712Z,13.90
2022-09-26T19:20:48.090Z,13.80
2022-09-26T19:23:14.734Z,13.80
2022-09-26T19:25:41.422Z,13.80
2022-09-26T19:28:12.416Z,13.80
2022-09-26T19:30:39.285Z,13.90
2022-09-26T19:33:05.850Z,13.90
2022-09-26T19:35:39.105Z,13.80
2022-09-26T19:38:13.143Z,13.90
2022-09-26T19:40:39.851Z,13.90
2022-09-26T19:43:07.667Z,13.90
2022-09-26T19:45:35.885Z,13.90
2022-09-26T19:48:03.268Z,13.90
2022-09-26T19:50:31.953Z,13.80
2022-09-26T19:52:58.643Z,13.80
2022-09-26T19:55:29.043Z,13.80
2022-09-26T19:58:10.816Z,13.80
2022-09-26T20:00:41.437Z,13.80
2022-09-26T20:03:18.498Z,13.70
2022-09-26T20:05:46.149Z,13.80
2022-09-26T20:08:15.589Z,13.70
2022-09-26T20:10:42.944Z,13.70
2022-09-26T20:13:09.473Z,13.70
2022-09-26T20:15:36.087Z,13.70
2022-09-26T20:18:03.025Z,13.60
2022-09-26T20:20:31.535Z,13.60
2022-09-26T20:22:58.405Z,13.50
2022-09-26T20:25:27.224Z,13.50
2022-09-26T20:27:54.229Z,13.50
2022-09-26T20:30:39.181Z,13.50
2022-09-26T20:33:06.211Z,13.50
2022-09-26T20:35:35.671Z,13.50
2022-09-26T20:38:07.403Z,13.50
2022-09-26T20:40:34.704Z,13.50
2022-09-26T20:43:07.741Z,13.50
2022-09-26T20:45:38.586Z,13.40
2022-09-26T20:48:07.967Z,13.40
2022-09-26T20:50:39.112Z,13.40
2022-09-26T20:53:18.553Z,13.30
2022-09-26T20:55:45.670Z,13.30
2022-09-26T20:58:12.275Z,13.30
2022-09-26T21:00:39.136Z,13.30
2022-09-26T21:03:06.097Z,13.20
2022-09-26T21:05:33.033Z,13.30
2022-09-26T21:08:00.076Z,13.20
2022-09-26T21:10:28.144Z,13.20
2022-09-26T21:12:55.207Z,13.20
2022-09-26T21:15:22.832Z,13.20
2022-09-26T21:17:50.398Z,13.20
2022-09-26T21:20:20.578Z,13.20
2022-09-26T21:22:47.236Z,13.10
2022-09-26T21:25:17.767Z,13.20
2022-09-26T21:27:45.192Z,13.10
2022-09-26T21:30:15.608Z,13.20
2022-09-26T21:32:43.697Z,13.10
2022-09-26T21:35:10.888Z,13.10
2022-09-26T21:37:37.477Z,13.10
2022-09-26T21:40:04.159Z,13.20
2022-09-26T21:42:30.822Z,13.20
2022-09-26T21:44:59.389Z,12.80
2022-09-26T21:47:28.009Z,13.20
2022-09-26T21:49:54.595Z,13.20
2022-09-26T21:52:30.851Z,13.20
2022-09-26T21:54:58.753Z,13.20
2022-09-26T21:57:28.038Z,13.10
2022-09-26T21:59:54.995Z,13.20
2022-09-26T22:02:21.733Z,13.20
2022-09-26T22:04:48.325Z,13.20
2022-09-26T22:07:14.853Z,13.20
2022-09-26T22:09:42.100Z,13.30
2022-09-26T22:12:08.610Z,13.20
2022-09-26T22:14:35.119Z,13.20
2022-09-26T22:17:01.808Z,13.20
2022-09-26T22:19:33.155Z,13.20
2022-09-26T22:22:00.520Z,13.20
2022-09-26T22:24:27.079Z,13.20
2022-09-26T22:26:53.601Z,13.20
2022-09-26T22:29:21.120Z,13.20
2022-09-26T22:31:47.613Z,13.20
2022-09-26T22:34:14.262Z,13.20
2022-09-26T22:36:40.768Z,13.10
2022-09-26T22:39:07.302Z,13.10
2022-09-26T22:41:33.995Z,13.20
2022-09-26T22:44:00.884Z,13.20
2022-09-26T22:46:27.496Z,13.20
2022-09-26T22:48:54.086Z,13.10
2022-09-26T22:51:20.623Z,13.20
2022-09-26T22:53:47.149Z,13.20
2022-09-26T22:56:14.822Z,13.20
2022-09-26T22:58:42.433Z,13.20
2022-09-26T23:01:10.844Z,13.20
2022-09-26T23:03:37.570Z,13.20
2022-09-26T23:06:04.745Z,13.30
2022-09-26T23:08:32.227Z,13.30
2022-09-26T23:10:58.997Z,13.20
2022-09-26T23:13:26.086Z,13.20
2022-09-26T23:15:52.861Z,13.20
2022-09-26T23:18:19.732Z,13.20
2022-09-26T23:20:47.078Z,13.20
2022-09-26T23:23:14.469Z,13.20
2022-09-26T23:25:48.242Z,13.10
2022-09-26T23:28:15.164Z,13.10
2022-09-26T23:30:42.219Z,13.10
2022-09-26T23:33:09.185Z,13.10
2022-09-26T23:35:35.915Z,13.10
2022-09-26T23:38:05.029Z,13.10
2022-09-26T23:40:32.226Z,13.00
2022-09-26T23:42:58.990Z,13.00
2022-09-26T23:45:26.703Z,12.90
2022-09-26T23:47:53.389Z,12.90
2022-09-26T23:50:20.202Z,12.60
2022-09-26T23:52:46.709Z,12.80
2022-09-26T23:55:13.938Z,12.60
2022-09-26T23:57:40.755Z,12.60
